KTCM/TCM METAR and TAF weather

Enter ICAO airport designator
Station Type Date Time Source
KTCM METAR 2022/11/30 16:55 UTC NOAA

KTCM 301655Z AUTO 20007KT 10SM BKN070 OVC120 04/04 A2951 RMK AO2 SLP999 T00400040 $


Station Type Date Time Source
KTCM Decoded METAR 2022/11/30 16:55 UTC NOAA

Tacoma / McChord Air Force Base, WA, United States (KTCM) 47-09N 122-29W 87M
Nov 30, 2022 - 11:55 AM EST / 2022.11.30 1655 UTC
Wind: from the SSW (200 degrees) at 8 MPH (7 KT):0
Visibility: 10 mile(s):0
Sky conditions: overcast
Temperature: 39.2 F (4.0 C)
Dew Point: 39.2 F (4.0 C)
Relative Humidity: 100%
Pressure (altimeter): 29.51 in. Hg (999 hPa)
ob: KTCM 301655Z AUTO 20007KT 10SM BKN070 OVC120 04/04 A2951 RMK AO2 SLP999 T00400040
cycle: 17

Station Type Date Time Source
KTCM TAF 2022/11/30 13:09 UTC NOAA

TAF KTCM 301300Z 3013/0119 17012KT 8000 -RA BR BKN030 OVC040 620309 QNH2941INS
BECMG 3014/3015 VRB06KT 9000 -SHRA BKN020 OVC030 620309 QNH2944INS
BECMG 3016/3017 24006KT 9999 NSW SCT025 BKN040 620409 QNH2945INS
BECMG 0103/0104 04006KT 6000 -RASN SCT015 BKN030 OVC050 620309 QNH2940INS
BECMG 0107/0108 04006KT 4800 -SN BR OVC010 620109 QNH2945INS
BECMG 0111/0112 03006KT 0800 SN OVC005 620059 QNH2942INS TX06/3020Z TNM01/0113Z

Example: see airport list